Time;durP1;ratioP1;P1;durP2;ratioP2;P2;SDS_P1;SDS_P2;PMS_P1;PMS_P2;Temp;Humidity;BMP_temperature;BMP_pressure;BME280_temperature;BME280_humidity;BME280_pressure;Samples;Min_cycle;Max_cycle;Signal;HPM_P1;HPM_P2
2023/09/06 00:02:12;;;;;;;0.82;0.30;;;19.50;90.00;;;;;;6257921;22;20036;-89
2023/09/06 00:04:40;;;;;;;0.47;0.30;;;19.50;90.00;;;;;;6283309;22;20023;-89
2023/09/06 00:07:08;;;;;;;1.50;0.70;;;19.40;90.00;;;;;;6283109;22;20019;-89
2023/09/06 00:09:35;;;;;;;0.93;0.50;;;19.40;90.10;;;;;;6308915;22;20023;-89
2023/09/06 00:12:03;;;;;;;1.10;0.50;;;19.40;90.10;;;;;;6283091;22;20019;-89
2023/09/06 00:14:30;;;;;;;1.70;0.73;;;19.40;90.20;;;;;;6282939;22;20015;-89
2023/09/06 00:16:57;;;;;;;1.42;0.70;;;19.30;90.20;;;;;;6282843;22;20023;-89
2023/09/06 00:19:27;;;;;;;1.33;0.50;;;19.30;90.20;;;;;;6283334;22;20411;-89
2023/09/06 00:21:54;;;;;;;1.00;0.47;;;19.20;90.30;;;;;;6282651;22;20098;-88
2023/09/06 00:24:21;;;;;;;1.38;0.60;;;19.20;90.30;;;;;;6283027;22;20408;-89
2023/09/06 00:26:49;;;;;;;1.10;0.40;;;19.20;90.30;;;;;;6282648;22;20023;-89
2023/09/06 00:29:21;;;;;;;1.05;0.50;;;19.20;90.40;;;;;;6283049;22;20437;-89
2023/09/06 00:31:48;;;;;;;1.20;0.60;;;19.10;90.40;;;;;;6283616;22;20446;-89
2023/09/06 00:34:16;;;;;;;1.02;0.50;;;19.10;90.40;;;;;;6257365;22;20023;-89
2023/09/06 00:36:43;;;;;;;1.25;0.60;;;19.10;90.40;;;;;;6258042;22;20026;-89
2023/09/06 00:39:10;;;;;;;2.65;0.60;;;19.10;90.40;;;;;;6308173;22;20026;-88
2023/09/06 00:41:41;;;;;;;0.93;0.40;;;19.10;90.50;;;;;;6258266;22;20018;-88
2023/09/06 00:44:08;;;;;;;1.33;0.40;;;19.00;90.50;;;;;;6282827;22;20518;-89
2023/09/06 00:46:38;;;;;;;2.03;0.60;;;19.00;90.50;;;;;;6308650;22;20047;-88
2023/09/06 00:49:07;;;;;;;2.33;0.40;;;18.90;90.50;;;;;;6282921;22;20034;-88
2023/09/06 00:51:34;;;;;;;1.42;0.60;;;18.90;90.50;;;;;;6282490;22;20445;-88
2023/09/06 00:54:02;;;;;;;4.60;0.75;;;18.90;90.60;;;;;;6282441;22;20441;-88
2023/09/06 00:56:30;;;;;;;0.80;0.45;;;18.90;90.60;;;;;;6256988;22;20106;-89
2023/09/06 00:58:57;;;;;;;1.17;0.43;;;18.90;90.60;;;;;;6282278;22;20049;-89
2023/09/06 01:01:24;;;;;;;1.38;0.55;;;18.80;90.60;;;;;;6282683;22;20023;-89
2023/09/06 01:03:51;;;;;;;1.15;0.70;;;18.80;90.60;;;;;;6281866;22;20062;-89
2023/09/06 01:06:27;;;;;;;1.25;0.70;;;18.80;90.70;;;;;;6282256;22;20015;-88
2023/09/06 01:08:59;;;;;;;1.00;0.43;;;18.80;90.70;;;;;;6307843;22;20015;-89
2023/09/06 01:11:27;;;;;;;1.02;0.50;;;18.80;90.70;;;;;;6282443;22;20058;-89
2023/09/06 01:13:59;;;;;;;1.30;0.70;;;18.70;90.70;;;;;;6308070;22;20145;-89
2023/09/06 01:16:32;;;;;;;1.50;0.80;;;18.70;90.70;;;;;;6282239;22;20015;-88
2023/09/06 01:19:00;;;;;;;1.48;0.60;;;18.70;90.80;;;;;;6281822;22;20019;-89
2023/09/06 01:21:36;;;;;;;1.40;0.70;;;18.60;90.80;;;;;;6282443;22;20102;-87
2023/09/06 01:24:05;;;;;;;1.25;0.60;;;18.70;90.80;;;;;;6307667;22;20071;-88
2023/09/06 01:26:34;;;;;;;1.25;0.60;;;18.60;90.80;;;;;;6282053;22;20050;-89
2023/09/06 01:29:01;;;;;;;1.50;0.43;;;18.50;90.80;;;;;;6282213;22;20408;-89
2023/09/06 01:31:28;;;;;;;1.10;0.50;;;18.50;90.90;;;;;;6281763;22;20062;-87
2023/09/06 01:33:56;;;;;;;1.65;0.70;;;18.50;90.90;;;;;;6281833;22;20015;-88
2023/09/06 01:36:23;;;;;;;0.88;0.40;;;18.50;91.00;;;;;;6281921;22;20015;-87
2023/09/06 01:38:53;;;;;;;1.27;0.55;;;18.40;91.00;;;;;;6281736;22;20016;-88
2023/09/06 01:41:20;;;;;;;1.63;0.80;;;18.40;91.00;;;;;;6281337;22;20019;-84
2023/09/06 01:43:53;;;;;;;1.40;0.68;;;18.40;91.00;;;;;;6280965;22;20073;-84
2023/09/06 01:46:23;;;;;;;1.73;0.70;;;18.30;91.00;;;;;;6280986;22;20023;-84
2023/09/06 01:48:50;;;;;;;3.15;0.70;;;18.30;91.10;;;;;;6281436;22;20023;-84
2023/09/06 01:51:18;;;;;;;1.50;0.50;;;18.30;91.10;;;;;;6280523;22;20035;-84
2023/09/06 01:53:45;;;;;;;2.38;0.57;;;18.20;91.10;;;;;;6280934;22;20015;-83
2023/09/06 01:56:12;;;;;;;1.63;0.77;;;18.20;91.10;;;;;;6306028;22;20023;-84
2023/09/06 01:58:40;;;;;;;1.33;0.70;;;18.20;91.10;;;;;;6281077;22;20429;-84
2023/09/06 02:01:09;;;;;;;1.10;0.50;;;18.20;91.20;;;;;;6280978;22;20039;-84
2023/09/06 02:03:37;;;;;;;1.42;0.70;;;18.20;91.20;;;;;;6280949;22;20019;-84
2023/09/06 02:06:04;;;;;;;3.78;0.80;;;18.10;91.20;;;;;;6281031;22;20042;-84
2023/09/06 02:08:32;;;;;;;1.65;0.80;;;18.10;91.20;;;;;;6281359;22;20023;-84
2023/09/06 02:10:59;;;;;;;2.03;0.68;;;18.10;91.30;;;;;;6281616;22;20031;-83
2023/09/06 02:13:26;;;;;;;1.25;0.63;;;18.00;91.30;;;;;;6281015;22;20094;-84
2023/09/06 02:15:54;;;;;;;1.88;0.68;;;18.00;91.30;;;;;;6280721;22;20023;-84
2023/09/06 02:18:21;;;;;;;1.90;0.60;;;18.00;91.30;;;;;;6280858;22;20388;-84
2023/09/06 02:20:50;;;;;;;1.52;0.80;;;18.00;91.30;;;;;;6256020;22;20047;-84
2023/09/06 02:23:17;;;;;;;2.30;0.85;;;17.90;91.30;;;;;;6280667;22;20019;-84
2023/09/06 02:25:45;;;;;;;2.38;1.00;;;17.90;91.40;;;;;;6280963;22;20054;-84
2023/09/06 02:28:14;;;;;;;3.85;0.80;;;17.90;91.40;;;;;;6306195;22;20019;-84
2023/09/06 02:30:41;;;;;;;1.77;0.77;;;17.90;91.40;;;;;;6306231;22;20023;-84
2023/09/06 02:33:11;;;;;;;2.30;1.02;;;17.80;91.40;;;;;;6280948;22;20026;-84
2023/09/06 02:35:40;;;;;;;1.48;0.70;;;17.80;91.50;;;;;;6306346;22;20113;-84
2023/09/06 02:38:12;;;;;;;0.80;0.50;;;17.80;91.50;;;;;;6281095;22;20012;-84
2023/09/06 02:40:42;;;;;;;2.38;0.63;;;17.80;91.50;;;;;;6306277;22;20303;-84
2023/09/06 02:43:13;;;;;;;1.83;0.70;;;17.70;91.50;;;;;;6255815;22;20019;-84
2023/09/06 02:45:49;;;;;;;1.95;0.80;;;17.70;91.50;;;;;;6306343;22;20030;-84
2023/09/06 02:48:18;;;;;;;2.20;1.05;;;17.70;91.60;;;;;;6306544;22;20439;-84
2023/09/06 02:50:45;;;;;;;1.02;0.60;;;17.70;91.60;;;;;;6281010;22;20425;-84
2023/09/06 02:53:22;;;;;;;2.35;0.50;;;17.60;91.60;;;;;;6307754;22;20025;-84
2023/09/06 02:55:53;;;;;;;1.80;0.70;;;17.70;91.60;;;;;;6283039;22;20073;-84
2023/09/06 02:58:24;;;;;;;1.45;0.68;;;17.60;91.60;;;;;;6289668;22;20015;-84
2023/09/06 03:00:57;;;;;;;2.92;0.75;;;17.60;91.60;;;;;;6321373;22;20023;-84
2023/09/06 03:03:30;;;;;;;1.95;0.93;;;17.60;91.60;;;;;;6318183;22;20023;-84
2023/09/06 03:05:58;;;;;;;1.23;0.60;;;17.60;91.70;;;;;;6276210;22;20015;-84
2023/09/06 03:08:28;;;;;;;2.13;0.90;;;17.50;91.70;;;;;;6272220;22;20023;-82
2023/09/06 03:10:57;;;;;;;2.20;0.90;;;17.50;91.70;;;;;;6294596;22;20023;-84
2023/09/06 03:13:24;;;;;;;2.35;0.80;;;17.50;91.70;;;;;;6312712;22;20485;-83
2023/09/06 03:15:53;;;;;;;2.03;0.70;;;17.50;91.70;;;;;;6285889;22;20447;-84
2023/09/06 03:18:22;;;;;;;2.15;0.52;;;17.50;91.70;;;;;;6285311;22;20404;-84
2023/09/06 03:20:55;;;;;;;1.60;0.85;;;17.50;91.70;;;;;;6285223;22;20026;-84
2023/09/06 03:23:25;;;;;;;2.90;0.90;;;17.50;91.70;;;;;;6310100;22;20019;-84
2023/09/06 03:25:55;;;;;;;1.40;0.60;;;17.40;91.70;;;;;;6310066;22;20081;-84
2023/09/06 03:28:28;;;;;;;1.27;0.52;;;17.40;92.00;;;;;;6286647;22;20026;-84
2023/09/06 03:30:59;;;;;;;1.75;0.85;;;17.40;91.80;;;;;;6284598;22;20030;-84
2023/09/06 03:33:29;;;;;;;1.75;0.82;;;17.40;91.80;;;;;;6284353;22;20102;-84
2023/09/06 03:35:57;;;;;;;1.70;0.73;;;17.30;91.80;;;;;;6309203;22;20416;-83
2023/09/06 03:38:28;;;;;;;1.60;0.70;;;17.30;92.10;;;;;;6258669;22;20402;-84
2023/09/06 03:41:01;;;;;;;2.08;0.90;;;17.30;91.90;;;;;;6311196;22;20085;-85
2023/09/06 03:43:32;;;;;;;1.88;0.90;;;17.30;91.90;;;;;;6285360;22;20026;-85
2023/09/06 03:46:09;;;;;;;2.88;1.15;;;17.30;92.20;;;;;;6284588;22;20396;-86
2023/09/06 03:48:37;;;;;;;1.90;0.82;;;17.30;91.90;;;;;;6309875;22;20019;-85
2023/09/06 03:51:04;;;;;;;2.45;0.68;;;17.30;91.90;;;;;;6309469;22;20056;-85
2023/09/06 03:53:33;;;;;;;1.35;0.63;;;17.20;91.90;;;;;;6284395;22;20026;-85
2023/09/06 03:56:00;;;;;;;1.10;0.50;;;17.20;91.90;;;;;;6284565;22;20084;-85
2023/09/06 03:58:42;;;;;;;1.50;0.73;;;17.20;92.00;;;;;;6286531;22;20048;-85
2023/09/06 04:01:10;;;;;;;2.00;0.73;;;17.20;92.00;;;;;;6284571;22;20026;-85
2023/09/06 04:03:40;;;;;;;2.00;0.60;;;17.20;92.00;;;;;;6285513;22;20019;-86
2023/09/06 04:06:10;;;;;;;1.75;0.70;;;17.10;92.00;;;;;;6283991;22;20016;-85
2023/09/06 04:08:38;;;;;;;2.15;0.77;;;17.20;92.10;;;;;;6284277;22;20102;-85
2023/09/06 04:11:06;;;;;;;1.35;0.60;;;17.10;92.10;;;;;;6284729;22;20023;-86
2023/09/06 04:13:34;;;;;;;2.08;0.75;;;17.10;92.10;;;;;;6282275;22;20019;-86
2023/09/06 04:16:01;;;;;;;2.70;0.80;;;17.10;92.10;;;;;;6307827;22;20023;-85
2023/09/06 04:18:34;;;;;;;1.77;0.70;;;17.10;92.10;;;;;;6283146;22;20094;-86
2023/09/06 04:21:08;;;;;;;1.52;0.68;;;17.00;92.10;;;;;;6282864;22;20019;-85
2023/09/06 04:23:39;;;;;;;2.55;1.00;;;17.00;92.10;;;;;;6308509;22;20023;-85
2023/09/06 04:26:08;;;;;;;2.50;0.90;;;17.00;92.20;;;;;;6307697;22;20467;-86
2023/09/06 04:28:36;;;;;;;1.50;0.63;;;17.00;92.20;;;;;;6282444;22;20072;-85
2023/09/06 04:31:06;;;;;;;1.35;0.70;;;17.00;92.20;;;;;;6282646;22;20401;-86
2023/09/06 04:33:37;;;;;;;2.30;0.80;;;16.90;92.20;;;;;;6283064;22;20023;-86
2023/09/06 04:36:12;;;;;;;2.70;0.90;;;16.90;92.20;;;;;;6283613;22;20019;-86
2023/09/06 04:38:40;;;;;;;1.30;0.68;;;16.90;92.30;;;;;;6282241;22;20020;-85
2023/09/06 04:41:10;;;;;;;2.08;0.88;;;16.90;92.30;;;;;;6283010;22;20017;-86
2023/09/06 04:43:43;;;;;;;2.25;0.88;;;16.90;92.30;;;;;;6283467;22;20027;-86
2023/09/06 04:46:10;;;;;;;2.17;0.98;;;16.90;92.30;;;;;;6307762;22;20131;-85
2023/09/06 04:48:44;;;;;;;2.17;0.82;;;16.90;92.30;;;;;;6283597;22;20026;-85
2023/09/06 04:51:14;;;;;;;1.95;0.80;;;16.80;92.30;;;;;;6282718;22;20027;-84
2023/09/06 04:53:43;;;;;;;1.65;0.60;;;16.80;92.30;;;;;;6283181;22;20027;-85
2023/09/06 04:56:13;;;;;;;2.40;0.90;;;16.80;92.30;;;;;;6283280;22;20023;-86
2023/09/06 04:58:46;;;;;;;2.13;0.77;;;16.80;92.40;;;;;;6259227;22;20050;-85
2023/09/06 05:01:14;;;;;;;2.90;0.80;;;16.80;92.40;;;;;;6281643;22;20019;-86
2023/09/06 05:03:41;;;;;;;2.00;0.80;;;16.80;92.40;;;;;;6256551;22;20092;-86
2023/09/06 05:06:08;;;;;;;2.25;0.75;;;16.70;92.40;;;;;;6281715;22;20102;-86
2023/09/06 05:08:35;;;;;;;1.77;0.73;;;16.80;92.40;;;;;;6256743;22;20019;-86
2023/09/06 05:11:14;;;;;;;2.38;0.80;;;16.70;92.40;;;;;;6283606;22;20029;-86
2023/09/06 05:13:44;;;;;;;1.55;0.70;;;16.70;92.40;;;;;;6307623;22;20539;-86
2023/09/06 05:16:11;;;;;;;1.63;0.77;;;16.70;92.40;;;;;;6332675;22;20102;-86
2023/09/06 05:18:39;;;;;;;2.22;0.90;;;16.70;92.40;;;;;;6281626;22;20016;-86
2023/09/06 05:21:06;;;;;;;1.83;0.57;;;16.70;92.40;;;;;;6281474;22;20023;-85
2023/09/06 05:23:37;;;;;;;2.42;1.08;;;16.80;92.40;;;;;;6281864;22;20124;-86
2023/09/06 05:26:04;;;;;;;3.10;0.90;;;16.80;92.30;;;;;;6306802;22;20020;-87
2023/09/06 05:28:42;;;;;;;2.33;1.10;;;16.90;92.30;;;;;;6283235;22;20058;-87
2023/09/06 05:31:10;;;;;;;2.05;0.82;;;16.90;92.30;;;;;;6282063;22;20054;-87
2023/09/06 05:33:40;;;;;;;1.20;0.60;;;17.00;92.30;;;;;;6283307;22;20023;-87
2023/09/06 05:36:08;;;;;;;1.90;1.00;;;17.00;92.20;;;;;;6257530;22;20019;-86
2023/09/06 05:38:36;;;;;;;2.15;0.80;;;17.00;92.20;;;;;;6308415;22;20106;-87
2023/09/06 05:41:05;;;;;;;2.28;0.90;;;17.00;92.10;;;;;;6282303;22;20096;-86
2023/09/06 05:43:38;;;;;;;1.42;0.70;;;17.10;92.10;;;;;;6307685;22;20102;-86
2023/09/06 05:46:06;;;;;;;1.58;0.70;;;17.10;92.10;;;;;;6281770;22;20019;-86
2023/09/06 05:48:51;;;;;;;1.90;0.73;;;17.20;92.10;;;;;;6286048;22;20501;-86
2023/09/06 05:51:19;;;;;;;2.03;1.00;;;17.20;92.00;;;;;;6306848;22;20072;-85
2023/09/06 05:53:48;;;;;;;1.92;0.80;;;17.30;92.00;;;;;;6257308;22;20023;-86
2023/09/06 05:56:15;;;;;;;2.70;0.75;;;17.30;92.00;;;;;;6281379;22;20023;-86
2023/09/06 05:58:42;;;;;;;2.60;1.30;;;17.40;91.90;;;;;;6332721;22;20019;-86
2023/09/06 06:01:12;;;;;;;1.85;0.90;;;17.50;91.90;;;;;;6281866;22;20461;-86
2023/09/06 06:03:39;;;;;;;2.75;0.90;;;17.50;91.80;;;;;;6282218;22;20433;-85
2023/09/06 06:06:10;;;;;;;1.60;0.60;;;17.60;91.80;;;;;;6281787;22;20019;-86
2023/09/06 06:08:38;;;;;;;2.25;0.98;;;17.70;91.70;;;;;;6306840;22;20031;-85
2023/09/06 06:11:06;;;;;;;1.23;0.50;;;17.80;91.60;;;;;;6281415;22;20453;-85
2023/09/06 06:13:33;;;;;;;1.98;0.75;;;17.90;91.60;;;;;;6281346;22;20072;-85
2023/09/06 06:16:01;;;;;;;1.80;0.80;;;18.00;91.50;;;;;;6306222;22;20018;-86
2023/09/06 06:18:28;;;;;;;1.83;0.80;;;18.00;91.40;;;;;;6332449;22;20015;-85
2023/09/06 06:20:55;;;;;;;1.45;0.63;;;18.20;91.40;;;;;;6280894;22;20020;-86
2023/09/06 06:23:22;;;;;;;2.50;0.90;;;18.20;91.30;;;;;;6280946;22;20019;-85
2023/09/06 06:25:50;;;;;;;1.60;0.90;;;18.30;91.20;;;;;;6280708;22;20019;-86
2023/09/06 06:28:17;;;;;;;1.77;1.00;;;18.50;91.10;;;;;;6281527;22;20043;-86
2023/09/06 06:30:44;;;;;;;1.40;0.80;;;18.60;91.10;;;;;;6281232;22;20011;-85
2023/09/06 06:33:11;;;;;;;1.80;0.90;;;18.70;90.90;;;;;;6280944;22;20033;-86
2023/09/06 06:35:39;;;;;;;3.45;1.15;;;18.80;90.80;;;;;;6281039;22;20403;-85
2023/09/06 06:38:06;;;;;;;2.00;0.70;;;19.00;90.70;;;;;;6306447;22;20392;-85
2023/09/06 06:40:36;;;;;;;2.28;1.13;;;19.10;90.50;;;;;;6306377;22;20066;-85
2023/09/06 06:43:04;;;;;;;2.00;1.00;;;19.20;90.50;;;;;;6280897;22;20076;-85
2023/09/06 06:45:31;;;;;;;1.98;0.80;;;19.30;90.40;;;;;;6280639;22;20429;-85
2023/09/06 06:47:58;;;;;;;3.42;1.38;;;19.40;90.30;;;;;;6280465;22;20016;-85
2023/09/06 06:50:25;;;;;;;2.15;0.90;;;19.50;90.30;;;;;;6280609;22;20118;-86
2023/09/06 06:52:52;;;;;;;1.85;0.75;;;19.60;90.10;;;;;;6280476;22;20030;-86
2023/09/06 06:55:20;;;;;;;2.58;1.00;;;19.60;90.00;;;;;;6280738;22;20049;-84
2023/09/06 06:57:47;;;;;;;1.75;0.98;;;19.70;90.00;;;;;;6305396;22;20015;-84
2023/09/06 07:00:17;;;;;;;2.00;1.05;;;19.80;89.90;;;;;;6280941;22;20499;-87
2023/09/06 07:02:47;;;;;;;1.63;0.80;;;19.90;89.70;;;;;;6281088;22;20011;-87
2023/09/06 07:05:20;;;;;;;3.25;1.10;;;20.00;89.60;;;;;;6280890;22;20453;-88
2023/09/06 07:07:52;;;;;;;2.22;0.73;;;20.10;89.30;;;;;;6280887;22;20102;-89
2023/09/06 07:11:14;;;;;;;2.30;0.90;;;20.20;89.20;;;;;;6290681;22;20027;-85
2023/09/06 07:13:57;;;;;;;2.22;0.90;;;20.30;89.00;;;;;;6284041;22;20011;-87
2023/09/06 07:16:51;;;;;;;1.40;0.70;;;20.40;88.80;;;;;;6305908;22;20090;-87
2023/09/06 07:19:20;;;;;;;2.95;1.08;;;20.50;88.60;;;;;;6280995;22;20019;-85
2023/09/06 07:21:52;;;;;;;1.75;0.80;;;20.60;88.40;;;;;;6281432;22;20041;-86
2023/09/06 07:24:31;;;;;;;2.65;0.90;;;20.60;88.20;;;;;;6308023;22;20098;-84
2023/09/06 07:26:58;;;;;;;2.72;0.90;;;20.70;88.10;;;;;;6331033;22;20069;-83
2023/09/06 07:29:26;;;;;;;2.20;0.90;;;20.80;88.00;;;;;;6279995;22;20016;-86
2023/09/06 07:31:59;;;;;;;3.65;1.20;;;20.90;87.80;;;;;;6305679;22;20019;-85
2023/09/06 07:34:40;;;;;;;2.35;0.68;;;21.00;87.70;;;;;;6254325;22;20122;-83
2023/09/06 07:37:22;;;;;;;3.55;1.10;;;21.10;87.50;;;;;;6281456;22;20076;-87
2023/09/06 07:40:10;;;;;;;1.67;0.80;;;21.20;87.30;;;;;;6282001;22;20408;-84
2023/09/06 07:42:51;;;;;;;2.08;0.90;;;21.20;87.20;;;;;;6306211;22;20015;-84
2023/09/06 07:49:21;;;;;;;2.00;0.93;;;21.40;86.80;;;;;;6308366;22;20077;-81
2023/09/06 07:51:48;;;;;;;1.70;0.60;;;21.50;86.70;;;;;;6307350;22;20069;-83
2023/09/06 07:54:15;;;;;;;1.00;0.50;;;21.60;86.50;;;;;;6282138;22;20019;-82
2023/09/06 07:56:50;;;;;;;1.35;0.60;;;21.70;86.30;;;;;;6307912;22;20015;-84
2023/09/06 07:59:22;;;;;;;2.08;0.80;;;21.80;86.20;;;;;;6306874;22;20045;-81
2023/09/06 08:01:50;;;;;;;1.52;0.70;;;21.90;86.00;;;;;;6282352;22;20012;-87
2023/09/06 08:04:19;;;;;;;1.67;0.70;;;21.90;85.80;;;;;;6306876;22;20106;-82
2023/09/06 08:06:46;;;;;;;2.03;0.80;;;22.00;85.70;;;;;;6307020;22;20016;-82
2023/09/06 08:09:14;;;;;;;2.22;0.93;;;22.00;85.50;;;;;;6281335;22;20027;-83
2023/09/06 08:11:41;;;;;;;1.85;0.70;;;22.10;85.40;;;;;;6307728;22;20088;-83
2023/09/06 08:14:22;;;;;;;2.67;0.65;;;22.20;85.30;;;;;;6307555;22;20019;-86
2023/09/06 08:17:38;;;;;;;1.77;0.73;;;22.40;85.10;;;;;;6307489;22;20076;-87
2023/09/06 08:20:12;;;;;;;2.47;0.93;;;22.40;84.80;;;;;;6281403;22;20476;-85
2023/09/06 08:23:13;;;;;;;2.08;0.70;;;22.50;84.70;;;;;;6282607;22;20015;-85
2023/09/06 08:25:40;;;;;;;1.70;0.60;;;22.60;84.40;;;;;;6306559;22;20023;-83
2023/09/06 08:28:08;;;;;;;1.13;0.63;;;22.60;84.40;;;;;;6306647;22;20047;-82
2023/09/06 08:34:35;;;;;;;1.85;0.60;;;22.80;83.90;;;;;;6306706;22;20073;-85
2023/09/06 08:37:13;;;;;;;1.35;0.55;;;22.90;84.50;;;;;;6308746;22;20448;-82
2023/09/06 08:39:40;;;;;;;1.70;0.73;;;22.90;83.70;;;;;;6306777;22;20043;-83
2023/09/06 08:42:59;;;;;;;1.02;0.52;;;23.00;83.60;;;;;;6307645;22;20015;-86
2023/09/06 08:45:26;;;;;;;1.58;0.60;;;23.00;83.10;;;;;;6281750;22;20019;-83
2023/09/06 08:47:57;;;;;;;0.93;0.60;;;23.10;83.20;;;;;;6310950;22;20091;-87
2023/09/06 08:50:56;;;;;;;1.27;0.60;;;23.20;83.00;;;;;;6313339;22;20062;-87
2023/09/06 08:53:55;;;;;;;1.77;0.80;;;23.20;82.80;;;;;;6266518;22;20019;-82
2023/09/06 08:56:22;;;;;;;1.48;0.60;;;23.30;82.50;;;;;;6324061;22;20015;-86
2023/09/06 08:58:53;;;;;;;1.27;0.60;;;23.40;82.50;;;;;;6311993;22;20153;-89
2023/09/06 09:01:23;;;;;;;2.35;0.80;;;23.40;82.30;;;;;;6284623;22;20037;-88
2023/09/06 09:03:53;;;;;;;1.23;0.55;;;23.50;82.10;;;;;;6308433;22;20337;-88
2023/09/06 09:06:25;;;;;;;0.93;0.60;;;23.50;82.00;;;;;;6312042;22;20103;-86
2023/09/06 09:09:13;;;;;;;1.25;0.55;;;23.60;81.80;;;;;;6289037;22;20023;-86
2023/09/06 09:11:51;;;;;;;1.63;0.70;;;23.80;81.40;;;;;;6317919;22;20030;-87
2023/09/06 09:14:22;;;;;;;1.48;0.60;;;23.80;81.30;;;;;;6320161;22;20035;-87
2023/09/06 09:17:05;;;;;;;1.33;0.70;;;23.90;81.10;;;;;;6309846;22;20046;-88
2023/09/06 09:19:40;;;;;;;1.20;0.60;;;23.90;80.80;;;;;;6260288;22;20016;-88
2023/09/06 09:22:13;;;;;;;1.55;0.73;;;24.00;80.80;;;;;;6307891;22;20026;-84
2023/09/06 09:25:17;;;;;;;1.73;0.45;;;24.10;80.70;;;;;;6219267;23;20039;-82
2023/09/06 09:27:57;;;;;;;1.60;0.80;;;24.10;80.50;;;;;;6195926;23;20051;-84
2023/09/06 09:30:34;;;;;;;1.80;0.73;;;24.20;80.50;;;;;;6193901;23;20111;-86
2023/09/06 09:33:28;;;;;;;1.05;0.57;;;24.20;80.30;;;;;;6193812;23;20055;-85
2023/09/06 09:35:56;;;;;;;1.73;0.77;;;24.30;80.00;;;;;;6220917;23;20016;-84
2023/09/06 09:38:24;;;;;;;5.38;2.38;;;24.40;80.00;;;;;;6193311;23;20139;-84
2023/09/06 09:41:08;;;;;;;5.35;2.72;;;24.50;79.80;;;;;;6194928;23;20023;-87
2023/09/06 09:43:39;;;;;;;12.10;4.85;;;24.50;79.50;;;;;;6193978;23;20051;-83
2023/09/06 09:46:08;;;;;;;11.40;5.28;;;24.60;79.40;;;;;;6218868;23;20020;-86
2023/09/06 09:48:47;;;;;;;9.27;4.20;;;24.70;79.20;;;;;;6193747;23;20131;-88
2023/09/06 09:51:21;;;;;;;8.65;3.95;;;24.70;78.90;;;;;;6219287;23;20020;-85
2023/09/06 09:53:51;;;;;;;10.63;4.55;;;24.70;78.70;;;;;;6193880;23;20061;-86
2023/09/06 09:57:06;;;;;;;10.18;5.55;;;24.80;78.60;;;;;;6193902;23;20103;-87
2023/09/06 09:59:36;;;;;;;7.72;3.72;;;24.90;78.30;;;;;;6218014;23;20026;-82
2023/09/06 10:02:09;;;;;;;5.65;2.90;;;24.90;78.30;;;;;;6230840;22;20069;-82
2023/09/06 10:04:42;;;;;;;8.65;3.65;;;25.00;78.10;;;;;;6305698;22;20023;-83
2023/09/06 10:07:13;;;;;;;5.43;2.70;;;25.10;77.80;;;;;;6305610;22;20022;-83
2023/09/06 10:09:44;;;;;;;6.53;2.97;;;25.30;77.20;;;;;;6306015;22;20410;-82
2023/09/06 10:12:20;;;;;;;5.50;2.70;;;25.60;76.50;;;;;;6256278;22;20023;-87
2023/09/06 10:15:13;;;;;;;4.93;2.20;;;25.90;75.50;;;;;;6306266;22;20027;-87
2023/09/06 10:22:14;;;;;;;5.13;1.98;;;26.60;73.50;;;;;;6307812;22;20007;-87
2023/09/06 10:24:51;;;;;;;3.88;1.88;;;27.00;72.50;;;;;;6305865;22;20023;-83
2023/09/06 10:27:59;;;;;;;4.07;1.70;;;27.30;71.80;;;;;;6305969;22;20109;-86
2023/09/06 10:30:44;;;;;;;3.88;1.63;;;27.50;70.90;;;;;;6306807;22;20019;-83
2023/09/06 10:33:33;;;;;;;2.83;1.00;;;27.70;70.30;;;;;;6305554;22;20042;-82
2023/09/06 10:36:09;;;;;;;4.68;1.70;;;28.00;69.50;;;;;;6306501;22;20456;-87
2023/09/06 10:38:55;;;;;;;;;;;28.00;69.20;;;;;;6282525;22;20012;-87
2023/09/06 10:41:32;;;;;;;2.97;1.17;;;28.00;69.00;;;;;;6330609;22;19919;-88
2023/09/06 10:44:07;;;;;;;3.25;1.30;;;28.10;68.80;;;;;;6306949;22;20019;-87
2023/09/06 10:46:43;;;;;;;2.65;1.05;;;28.10;68.30;;;;;;6281505;22;20019;-87
2023/09/06 10:49:23;;;;;;;;;;;27.90;68.10;;;;;;6306965;22;20046;-87
2023/09/06 10:52:39;;;;;;;2.80;0.80;;;27.70;69.00;;;;;;6179622;23;19915;-82
2023/09/06 10:56:08;;;;;;;2.55;0.85;;;27.70;69.00;;;;;;6280716;22;20054;-89
2023/09/06 10:58:47;;;;;;;1.65;0.82;;;27.40;69.30;;;;;;6282662;22;20073;-88
2023/09/06 11:01:17;;;;;;;2.13;0.75;;;27.30;70.10;;;;;;6306819;22;20023;-87
2023/09/06 11:03:54;;;;;;;1.70;0.70;;;27.20;70.00;;;;;;6306403;22;20385;-87
2023/09/06 11:06:24;;;;;;;2.60;0.82;;;27.00;70.10;;;;;;6306413;22;20459;-86
2023/09/06 11:09:07;;;;;;;1.40;0.57;;;26.80;70.60;;;;;;6306855;22;20327;-88
2023/09/06 11:11:37;;;;;;;1.73;0.95;;;26.70;70.80;;;;;;6306837;22;20077;-88
2023/09/06 11:14:11;;;;;;;1.73;0.70;;;26.60;71.10;;;;;;6306514;22;20018;-89
2023/09/06 11:16:49;;;;;;;2.30;1.00;;;26.50;71.10;;;;;;6306620;22;20019;-89
2023/09/06 11:19:29;;;;;;;1.85;0.70;;;26.60;71.20;;;;;;6255780;22;20019;-88
2023/09/06 11:22:08;;;;;;;1.23;0.40;;;26.50;71.10;;;;;;6307665;22;20019;-88
2023/09/06 11:24:37;;;;;;;2.28;0.80;;;27.00;70.60;;;;;;6282707;22;20023;-84
2023/09/06 11:27:20;;;;;;;1.55;0.68;;;27.90;68.90;;;;;;6308182;22;20445;-88
2023/09/06 11:29:56;;;;;;;2.53;0.70;;;28.80;66.60;;;;;;6308479;22;20025;-84
2023/09/06 11:32:24;;;;;;;0.90;0.50;;;29.40;65.10;;;;;;6308393;22;20019;-89
2023/09/06 11:34:51;;;;;;;1.75;0.63;;;29.90;64.10;;;;;;6307992;22;20019;-83
2023/09/06 11:37:20;;;;;;;1.13;0.50;;;30.00;63.40;;;;;;6308345;22;20023;-89
2023/09/06 11:39:49;;;;;;;1.83;0.63;;;29.90;63.00;;;;;;6307841;22;20022;-83
2023/09/06 11:42:19;;;;;;;1.55;0.57;;;29.70;63.30;;;;;;6282565;22;20068;-84
2023/09/06 11:45:06;;;;;;;1.30;0.65;;;29.40;63.80;;;;;;6285901;22;20046;-84
2023/09/06 11:47:39;;;;;;;2.25;0.70;;;28.90;64.40;;;;;;6283791;22;20022;-86
2023/09/06 11:50:12;;;;;;;1.83;1.00;;;28.50;65.30;;;;;;6282202;22;20106;-85
2023/09/06 11:52:41;;;;;;;2.55;0.70;;;28.10;65.80;;;;;;6307672;22;20023;-88
2023/09/06 11:55:23;;;;;;;1.70;0.60;;;27.90;66.20;;;;;;6307789;22;20019;-84
2023/09/06 11:57:57;;;;;;;1.88;0.70;;;27.60;66.40;;;;;;6309610;22;20019;-89
2023/09/06 12:00:42;;;;;;;1.75;0.57;;;27.50;66.30;;;;;;6283355;22;20433;-89
2023/09/06 12:03:13;;;;;;;1.58;0.52;;;27.40;66.00;;;;;;6307976;22;20101;-88
2023/09/06 12:05:43;;;;;;;2.45;1.08;;;27.30;66.10;;;;;;6308543;22;20015;-87
2023/09/06 12:08:21;;;;;;;1.38;0.80;;;27.20;65.90;;;;;;6308164;22;20023;-89
2023/09/06 12:10:54;;;;;;;1.33;0.50;;;27.10;65.70;;;;;;6307971;22;20021;-89
2023/09/06 12:13:34;;;;;;;1.40;0.68;;;27.00;65.50;;;;;;6307844;22;20102;-87
2023/09/06 12:20:41;;;;;;;1.73;0.60;;;27.00;65.00;;;;;;6308786;22;20022;-88
2023/09/06 12:23:20;;;;;;;1.50;0.70;;;26.90;65.10;;;;;;6282247;22;20062;-91
2023/09/06 12:26:08;;;;;;;1.95;0.85;;;27.00;65.00;;;;;;6285565;22;20015;-88
2023/09/06 12:28:44;;;;;;;3.05;0.60;;;26.90;64.70;;;;;;6282083;22;20027;-83
2023/09/06 12:31:14;;;;;;;1.30;0.60;;;27.00;64.70;;;;;;6307433;22;20026;-87
2023/09/06 12:34:08;;;;;;;2.40;0.73;;;27.00;64.60;;;;;;6306001;22;20023;-86
2023/09/06 12:36:38;;;;;;;1.15;0.50;;;27.10;64.40;;;;;;6306987;22;20023;-85
2023/09/06 12:39:11;;;;;;;1.30;0.65;;;27.10;64.60;;;;;;6333383;22;20019;-90
2023/09/06 12:41:38;;;;;;;1.67;0.65;;;27.10;64.60;;;;;;6281771;22;20019;-86
2023/09/06 12:44:06;;;;;;;2.33;0.70;;;27.10;64.60;;;;;;6306690;22;20022;-83
2023/09/06 12:46:34;;;;;;;1.30;0.50;;;27.10;64.60;;;;;;6280948;22;20021;-83
2023/09/06 12:59:43;;;;;;;1.63;0.65;;;27.10;64.30;;;;;;6181406;23;20100;-86
2023/09/06 13:06:51;;;;;;;1.10;0.47;;;27.10;64.10;;;;;;6306385;22;20083;-90
2023/09/06 13:17:37;;;;;;;0.98;0.45;;;27.10;63.60;;;;;;6306682;22;20057;-86
2023/09/06 13:20:10;;;;;;;;;;;27.20;63.80;;;;;;6306468;22;20110;-87
2023/09/06 13:22:38;;;;;;;2.38;0.60;;;27.10;63.80;;;;;;6306512;22;19921;-85
2023/09/06 13:25:07;;;;;;;1.27;0.57;;;27.10;63.70;;;;;;6306709;22;20042;-87
2023/09/06 13:27:37;;;;;;;1.48;0.50;;;27.20;63.50;;;;;;6306320;22;20015;-86
2023/09/06 13:30:05;;;;;;;1.30;0.50;;;27.20;63.20;;;;;;6281154;22;20313;-88
2023/09/06 13:32:32;;;;;;;1.70;0.60;;;27.30;62.80;;;;;;6281166;22;20072;-88
2023/09/06 13:35:00;;;;;;;1.40;0.50;;;27.30;62.60;;;;;;6281074;22;20023;-88
2023/09/06 13:37:32;;;;;;;1.80;0.60;;;27.30;62.60;;;;;;6231173;22;20027;-87
2023/09/06 13:39:59;;;;;;;;;;;27.30;62.60;;;;;;6282255;22;20066;-94
2023/09/06 13:42:28;;;;;;;1.42;0.60;;;27.20;62.80;;;;;;6308203;22;19921;-94
2023/09/06 13:45:07;;;;;;;1.35;0.50;;;27.30;62.80;;;;;;6281531;22;20094;-92
2023/09/06 13:47:38;;;;;;;1.20;0.50;;;27.30;62.70;;;;;;6233575;22;20019;-94
2023/09/06 13:50:06;;;;;;;1.15;0.47;;;27.30;62.60;;;;;;6257788;22;20015;-95
2023/09/06 13:52:36;;;;;;;1.20;0.52;;;27.30;62.50;;;;;;6282598;22;20015;-91
2023/09/06 13:55:37;;;;;;;2.05;0.60;;;27.40;62.40;;;;;;6232391;22;20460;-90
2023/09/06 14:07:05;;;;;;;1.80;0.63;;;27.50;62.20;;;;;;6308384;22;20010;-88